Share

Cades, SC (29518)

Williamsburg County (KCKI) Elev 66 ft | 33.72 °N, 79.86 °W | Change Station
Active Advisory: Flood Warning Active Notice: Record Report

Current weather conditions updated 38 minutes ago

Overcast
Overcast
63 °F
Feels Like 63 °F
N
7
Wind Variable Wind from North
Sunrise 6:42 AM
Sunset 7:54 PM
Moon Waning Gibbous

Today is forecast to be Warmer than yesterday.

Pressure 30.15 in
Visibility 10.0 miles
Clouds Overcast 3300 ft
Dew Point 46 °F
Humidity 55%
Rainfall 0.98 in
Snow Depth Not available.
UV 3 out of 16
Pollen 7.40 out of 12
Air Quality Not available.
Flu Activity Local Activity
METAR KCKI 201615Z AUTO 35006KT 10SM OVC033 17/08 A3015 RMK AO2

More Conditions Fewer Conditions

Pressure 30.15 in
Visibility 10.0 miles
Clouds Overcast 3300 ft
Dew Point 46 °F
Humidity 55%
Rainfall 0.98 in
Snow Depth Not available.
UV 3 out of 16
Pollen 7.40 out of 12
Air Quality Not available.
Flu Activity Local Activity
METAR KCKI 201615Z AUTO 35006KT 10SM OVC033 17/08 A3015 RMK AO2

More Conditions Fewer Conditions

10-Day Weather Forecast

Almanac

Astronomy

Apr. 20, 2014 Rise Set
Actual Time 6:42 AM EDT 7:54 PM EDT
Civil Twilight 6:16 AM EDT 8:20 PM EDT
Nautical Twilight 5:45 AM EDT 8:51 PM EDT
Astronomical Twilight 5:13 AM EDT 9:23 PM EDT
Moon 12:26 AM EDT 11:06 AM EDT
Length of Visible Light 14h 03m
Length of Day
13h 11m
Tomorrow will be 1m 56s longer.
Waning Gibbous, 68% of the Moon is Illuminated
Today
Waning Gibbous
Apr 22
Last Quarter
Apr 29
New
May 6
First Quarter
May 14
Full

Today's Extremes

State Highs State Lows

Community

  • Columbine
    Columbine
  • Easter Sunrise
    Easter Sunrise
  • Easter Eve - The Promise - Lake Palestine, TX
    Easter Eve - The Promise - Lake Palestine, TX
  • Happy Easter
    Happy Easter
  • EARLY FOGGY MORNING
    EARLY FOGGY MORNING

WunderPhotos

Upload Photos

1,703,276 photos uploaded!

WunderBlogs® & News

Nearby

Snow Depth

Station Depth Elevation
No new snow has been reported.

Coastal Water Temperatures

Place Temperature
No Stations Reporting

Earthquake Activity

City Distance Mag. Time & Date
No recent earthquake activity has been reported nearby.
Minimum magnitude displayed is 2.5.

Nearby Weather Stations

Station Location Temp. Dew Point Humidity Wind Precip. Elev Updated Type
The Abbeys, Florence, SC 60.4 °F 49 °F 66% WNW  at  11.9 mph - / hr 115 ft 12:38 PM EDT Normal
Savannah Grove, Effingham, SC 61.2 °F 44 °F 54% SE  at  3.7 mph - / hr 138 ft 12:49 PM EDT Normal

Show More Stations Show Fewer Stations

What do you think?

We're not finished. Please let us know what you like, what you don't like, and what you are still missing.